sensor_id;sensor_type;location;lat;lon;timestamp;temperature;humidity
18260;DHT22;9256;52.236;5.712;2023-07-16T00:01:52;17.20;99.90
18260;DHT22;9256;52.236;5.712;2023-07-16T00:04:19;17.20;99.90
18260;DHT22;9256;52.236;5.712;2023-07-16T00:06:46;17.20;99.90
18260;DHT22;9256;52.236;5.712;2023-07-16T00:09:12;17.30;99.90
18260;DHT22;9256;52.236;5.712;2023-07-16T00:11:41;17.50;99.90
18260;DHT22;9256;52.236;5.712;2023-07-16T00:14:09;17.50;99.90
18260;DHT22;9256;52.236;5.712;2023-07-16T00:16:36;17.70;99.90
18260;DHT22;9256;52.236;5.712;2023-07-16T00:19:03;17.70;99.90
18260;DHT22;9256;52.236;5.712;2023-07-16T00:21:30;17.80;99.90
18260;DHT22;9256;52.236;5.712;2023-07-16T00:23:57;17.80;99.90
18260;DHT22;9256;52.236;5.712;2023-07-16T00:26:24;18.00;99.90
18260;DHT22;9256;52.236;5.712;2023-07-16T00:28:52;17.90;99.90
18260;DHT22;9256;52.236;5.712;2023-07-16T00:31:19;17.90;99.90
18260;DHT22;9256;52.236;5.712;2023-07-16T00:33:46;17.80;99.90
18260;DHT22;9256;52.236;5.712;2023-07-16T00:36:13;17.70;99.90
18260;DHT22;9256;52.236;5.712;2023-07-16T00:38:40;17.70;99.90
18260;DHT22;9256;52.236;5.712;2023-07-16T00:41:08;17.90;99.90
18260;DHT22;9256;52.236;5.712;2023-07-16T00:43:35;17.90;99.90
18260;DHT22;9256;52.236;5.712;2023-07-16T00:46:03;17.90;99.90
18260;DHT22;9256;52.236;5.712;2023-07-16T00:48:30;17.80;99.90
18260;DHT22;9256;52.236;5.712;2023-07-16T00:50:57;17.70;99.90
18260;DHT22;9256;52.236;5.712;2023-07-16T00:53:26;17.70;99.90
18260;DHT22;9256;52.236;5.712;2023-07-16T00:55:53;17.70;99.90
18260;DHT22;9256;52.236;5.712;2023-07-16T00:58:20;17.60;99.90
18260;DHT22;9256;52.236;5.712;2023-07-16T01:00:47;17.60;99.90
18260;DHT22;9256;52.236;5.712;2023-07-16T01:03:16;17.50;99.90
18260;DHT22;9256;52.236;5.712;2023-07-16T01:05:49;17.60;99.90
18260;DHT22;9256;52.236;5.712;2023-07-16T01:08:21;17.60;99.90
18260;DHT22;9256;52.236;5.712;2023-07-16T01:10:49;17.60;99.90
18260;DHT22;9256;52.236;5.712;2023-07-16T01:13:16;17.50;99.90
18260;DHT22;9256;52.236;5.712;2023-07-16T01:15:43;17.60;99.90
18260;DHT22;9256;52.236;5.712;2023-07-16T01:18:10;17.50;99.90
18260;DHT22;9256;52.236;5.712;2023-07-16T01:20:38;17.50;99.90
18260;DHT22;9256;52.236;5.712;2023-07-16T01:26:08;17.40;99.90
18260;DHT22;9256;52.236;5.712;2023-07-16T01:29:06;17.30;99.90
18260;DHT22;9256;52.236;5.712;2023-07-16T01:31:34;17.40;99.90
18260;DHT22;9256;52.236;5.712;2023-07-16T01:34:02;17.40;99.90
18260;DHT22;9256;52.236;5.712;2023-07-16T01:36:32;17.50;99.90
18260;DHT22;9256;52.236;5.712;2023-07-16T01:39:00;17.50;99.90
18260;DHT22;9256;52.236;5.712;2023-07-16T01:41:27;17.40;99.90
18260;DHT22;9256;52.236;5.712;2023-07-16T01:43:54;17.40;99.90
18260;DHT22;9256;52.236;5.712;2023-07-16T01:46:23;17.40;99.90
18260;DHT22;9256;52.236;5.712;2023-07-16T01:48:50;17.30;99.90
18260;DHT22;9256;52.236;5.712;2023-07-16T01:51:17;17.30;99.90
18260;DHT22;9256;52.236;5.712;2023-07-16T01:53:45;17.30;99.90
18260;DHT22;9256;52.236;5.712;2023-07-16T01:56:12;17.30;99.90
18260;DHT22;9256;52.236;5.712;2023-07-16T01:58:39;17.30;99.90
18260;DHT22;9256;52.236;5.712;2023-07-16T02:01:06;17.20;99.90
18260;DHT22;9256;52.236;5.712;2023-07-16T02:03:34;17.20;99.90
18260;DHT22;9256;52.236;5.712;2023-07-16T02:06:01;17.00;99.90
18260;DHT22;9256;52.236;5.712;2023-07-16T02:08:28;17.00;99.90
18260;DHT22;9256;52.236;5.712;2023-07-16T02:10:55;17.00;99.90
18260;DHT22;9256;52.236;5.712;2023-07-16T02:13:22;17.00;99.90
18260;DHT22;9256;52.236;5.712;2023-07-16T02:15:49;16.90;99.90
18260;DHT22;9256;52.236;5.712;2023-07-16T02:18:16;16.90;99.90
18260;DHT22;9256;52.236;5.712;2023-07-16T02:20:44;16.90;99.90
18260;DHT22;9256;52.236;5.712;2023-07-16T02:23:11;16.90;99.90
18260;DHT22;9256;52.236;5.712;2023-07-16T02:25:38;16.90;99.90
18260;DHT22;9256;52.236;5.712;2023-07-16T02:28:05;16.90;99.90
18260;DHT22;9256;52.236;5.712;2023-07-16T02:30:32;16.80;99.90
18260;DHT22;9256;52.236;5.712;2023-07-16T02:32:59;16.90;99.90
18260;DHT22;9256;52.236;5.712;2023-07-16T02:35:26;16.90;99.90
18260;DHT22;9256;52.236;5.712;2023-07-16T02:37:54;16.80;99.90
18260;DHT22;9256;52.236;5.712;2023-07-16T02:40:21;16.80;99.90
18260;DHT22;9256;52.236;5.712;2023-07-16T02:42:48;16.80;99.90
18260;DHT22;9256;52.236;5.712;2023-07-16T02:45:15;16.80;99.90
18260;DHT22;9256;52.236;5.712;2023-07-16T02:47:42;16.80;99.90
18260;DHT22;9256;52.236;5.712;2023-07-16T02:50:10;16.70;99.90
18260;DHT22;9256;52.236;5.712;2023-07-16T02:52:37;16.70;99.90
18260;DHT22;9256;52.236;5.712;2023-07-16T02:55:06;16.70;99.90
18260;DHT22;9256;52.236;5.712;2023-07-16T02:57:33;16.80;99.90
18260;DHT22;9256;52.236;5.712;2023-07-16T03:00:00;16.90;99.90
18260;DHT22;9256;52.236;5.712;2023-07-16T03:02:27;16.90;99.90
18260;DHT22;9256;52.236;5.712;2023-07-16T03:04:53;16.80;99.90
18260;DHT22;9256;52.236;5.712;2023-07-16T03:07:20;16.80;99.90
18260;DHT22;9256;52.236;5.712;2023-07-16T03:09:47;16.80;99.90
18260;DHT22;9256;52.236;5.712;2023-07-16T03:12:16;16.80;99.90
18260;DHT22;9256;52.236;5.712;2023-07-16T03:14:43;16.80;99.90
18260;DHT22;9256;52.236;5.712;2023-07-16T03:17:10;16.80;99.90
18260;DHT22;9256;52.236;5.712;2023-07-16T03:19:37;16.70;99.90
18260;DHT22;9256;52.236;5.712;2023-07-16T03:22:04;16.70;99.90
18260;DHT22;9256;52.236;5.712;2023-07-16T03:24:31;16.70;99.90
18260;DHT22;9256;52.236;5.712;2023-07-16T03:26:58;16.60;99.90
18260;DHT22;9256;52.236;5.712;2023-07-16T03:29:26;16.60;99.90
18260;DHT22;9256;52.236;5.712;2023-07-16T03:31:53;16.60;99.90
18260;DHT22;9256;52.236;5.712;2023-07-16T03:34:20;16.50;99.90
18260;DHT22;9256;52.236;5.712;2023-07-16T03:36:47;16.40;99.90
18260;DHT22;9256;52.236;5.712;2023-07-16T03:39:14;16.50;99.90
18260;DHT22;9256;52.236;5.712;2023-07-16T03:41:41;16.40;99.90
18260;DHT22;9256;52.236;5.712;2023-07-16T03:44:07;16.50;99.90
18260;DHT22;9256;52.236;5.712;2023-07-16T03:46:36;16.40;99.90
18260;DHT22;9256;52.236;5.712;2023-07-16T03:49:06;16.50;99.90
18260;DHT22;9256;52.236;5.712;2023-07-16T03:51:33;16.40;99.90
18260;DHT22;9256;52.236;5.712;2023-07-16T03:54:00;16.40;99.90
18260;DHT22;9256;52.236;5.712;2023-07-16T03:56:27;16.40;99.90
18260;DHT22;9256;52.236;5.712;2023-07-16T03:58:53;16.40;99.90
18260;DHT22;9256;52.236;5.712;2023-07-16T04:01:20;16.40;99.90
18260;DHT22;9256;52.236;5.712;2023-07-16T04:03:49;16.40;99.90
18260;DHT22;9256;52.236;5.712;2023-07-16T04:06:16;16.40;99.90
18260;DHT22;9256;52.236;5.712;2023-07-16T04:08:43;16.50;99.90
18260;DHT22;9256;52.236;5.712;2023-07-16T04:11:09;16.50;99.90
18260;DHT22;9256;52.236;5.712;2023-07-16T04:13:36;16.60;99.90
18260;DHT22;9256;52.236;5.712;2023-07-16T04:16:04;16.70;99.90
18260;DHT22;9256;52.236;5.712;2023-07-16T04:18:30;16.70;99.90
18260;DHT22;9256;52.236;5.712;2023-07-16T04:20:59;16.70;99.90
18260;DHT22;9256;52.236;5.712;2023-07-16T04:23:26;16.60;99.90
18260;DHT22;9256;52.236;5.712;2023-07-16T04:25:53;16.60;99.90
18260;DHT22;9256;52.236;5.712;2023-07-16T04:28:21;16.60;99.90
18260;DHT22;9256;52.236;5.712;2023-07-16T04:30:48;16.60;99.90
18260;DHT22;9256;52.236;5.712;2023-07-16T04:33:15;16.60;99.90
18260;DHT22;9256;52.236;5.712;2023-07-16T04:35:42;16.60;99.90
18260;DHT22;9256;52.236;5.712;2023-07-16T04:38:10;16.60;99.90
18260;DHT22;9256;52.236;5.712;2023-07-16T04:40:37;16.70;99.90
18260;DHT22;9256;52.236;5.712;2023-07-16T04:43:04;16.70;99.90
18260;DHT22;9256;52.236;5.712;2023-07-16T04:45:31;16.70;99.90
18260;DHT22;9256;52.236;5.712;2023-07-16T04:47:58;16.70;99.90
18260;DHT22;9256;52.236;5.712;2023-07-16T04:50:25;16.70;99.90
18260;DHT22;9256;52.236;5.712;2023-07-16T04:52:52;16.70;99.90
18260;DHT22;9256;52.236;5.712;2023-07-16T04:55:20;16.80;99.90
18260;DHT22;9256;52.236;5.712;2023-07-16T04:57:47;16.80;99.90
18260;DHT22;9256;52.236;5.712;2023-07-16T05:00:14;16.90;99.90
18260;DHT22;9256;52.236;5.712;2023-07-16T05:02:41;16.90;99.90
18260;DHT22;9256;52.236;5.712;2023-07-16T05:05:08;16.90;99.90
18260;DHT22;9256;52.236;5.712;2023-07-16T05:07:35;17.00;99.90
18260;DHT22;9256;52.236;5.712;2023-07-16T05:10:02;17.00;99.90
18260;DHT22;9256;52.236;5.712;2023-07-16T05:12:31;17.10;99.90
18260;DHT22;9256;52.236;5.712;2023-07-16T05:14:58;17.00;99.90
18260;DHT22;9256;52.236;5.712;2023-07-16T05:17:24;17.00;99.90
18260;DHT22;9256;52.236;5.712;2023-07-16T05:19:52;17.00;99.90
18260;DHT22;9256;52.236;5.712;2023-07-16T05:22:19;17.10;99.90
18260;DHT22;9256;52.236;5.712;2023-07-16T05:24:45;17.10;99.90
18260;DHT22;9256;52.236;5.712;2023-07-16T05:27:12;17.20;99.90
18260;DHT22;9256;52.236;5.712;2023-07-16T05:29:41;17.20;99.90
18260;DHT22;9256;52.236;5.712;2023-07-16T05:32:08;17.30;99.90
18260;DHT22;9256;52.236;5.712;2023-07-16T05:34:35;17.30;99.90
18260;DHT22;9256;52.236;5.712;2023-07-16T05:37:02;17.30;99.90
18260;DHT22;9256;52.236;5.712;2023-07-16T05:39:29;17.40;99.90
18260;DHT22;9256;52.236;5.712;2023-07-16T05:41:56;17.40;99.90
18260;DHT22;9256;52.236;5.712;2023-07-16T05:44:23;17.40;99.90
18260;DHT22;9256;52.236;5.712;2023-07-16T05:46:51;17.50;99.90
18260;DHT22;9256;52.236;5.712;2023-07-16T05:49:18;17.50;99.90
18260;DHT22;9256;52.236;5.712;2023-07-16T05:51:45;17.60;99.90
18260;DHT22;9256;52.236;5.712;2023-07-16T05:54:12;17.60;99.90
18260;DHT22;9256;52.236;5.712;2023-07-16T05:56:41;17.70;99.90
18260;DHT22;9256;52.236;5.712;2023-07-16T05:59:08;17.70;99.90
18260;DHT22;9256;52.236;5.712;2023-07-16T06:01:35;17.70;99.90
18260;DHT22;9256;52.236;5.712;2023-07-16T06:04:04;17.80;99.90
18260;DHT22;9256;52.236;5.712;2023-07-16T06:06:31;17.80;99.90
18260;DHT22;9256;52.236;5.712;2023-07-16T06:09:01;17.80;99.90
18260;DHT22;9256;52.236;5.712;2023-07-16T06:11:27;17.90;99.90
18260;DHT22;9256;52.236;5.712;2023-07-16T06:13:54;17.90;99.90
18260;DHT22;9256;52.236;5.712;2023-07-16T06:16:21;17.90;99.90
18260;DHT22;9256;52.236;5.712;2023-07-16T06:18:48;17.80;99.90
18260;DHT22;9256;52.236;5.712;2023-07-16T06:21:17;17.90;99.90
18260;DHT22;9256;52.236;5.712;2023-07-16T06:23:44;18.00;99.90
18260;DHT22;9256;52.236;5.712;2023-07-16T06:26:11;18.00;99.90
18260;DHT22;9256;52.236;5.712;2023-07-16T06:28:37;18.10;99.90
18260;DHT22;9256;52.236;5.712;2023-07-16T06:31:04;18.20;99.90
18260;DHT22;9256;52.236;5.712;2023-07-16T06:33:31;18.30;99.90
18260;DHT22;9256;52.236;5.712;2023-07-16T06:35:58;18.30;99.90
18260;DHT22;9256;52.236;5.712;2023-07-16T06:38:26;18.40;99.90
18260;DHT22;9256;52.236;5.712;2023-07-16T06:40:53;18.40;99.90
18260;DHT22;9256;52.236;5.712;2023-07-16T06:43:20;18.50;99.90
18260;DHT22;9256;52.236;5.712;2023-07-16T06:45:49;18.60;99.90
18260;DHT22;9256;52.236;5.712;2023-07-16T06:48:17;18.70;99.90
18260;DHT22;9256;52.236;5.712;2023-07-16T06:50:43;18.70;99.90
18260;DHT22;9256;52.236;5.712;2023-07-16T06:53:10;18.80;99.90
18260;DHT22;9256;52.236;5.712;2023-07-16T06:55:39;18.90;99.90
18260;DHT22;9256;52.236;5.712;2023-07-16T06:58:09;18.90;99.90
18260;DHT22;9256;52.236;5.712;2023-07-16T07:00:36;19.00;99.90
18260;DHT22;9256;52.236;5.712;2023-07-16T07:03:03;19.10;99.90
18260;DHT22;9256;52.236;5.712;2023-07-16T07:05:30;18.90;99.90
18260;DHT22;9256;52.236;5.712;2023-07-16T07:07:57;18.70;99.90
18260;DHT22;9256;52.236;5.712;2023-07-16T07:10:24;18.90;99.90
18260;DHT22;9256;52.236;5.712;2023-07-16T07:12:52;19.10;99.90
18260;DHT22;9256;52.236;5.712;2023-07-16T07:15:19;19.10;99.90
18260;DHT22;9256;52.236;5.712;2023-07-16T07:17:46;19.20;99.90
18260;DHT22;9256;52.236;5.712;2023-07-16T07:20:14;19.30;99.90
18260;DHT22;9256;52.236;5.712;2023-07-16T07:22:41;19.40;99.90
18260;DHT22;9256;52.236;5.712;2023-07-16T07:25:08;19.40;99.90
18260;DHT22;9256;52.236;5.712;2023-07-16T07:27:35;19.50;99.90
18260;DHT22;9256;52.236;5.712;2023-07-16T07:30:04;19.60;99.90
18260;DHT22;9256;52.236;5.712;2023-07-16T07:32:31;19.70;99.90
18260;DHT22;9256;52.236;5.712;2023-07-16T07:34:58;19.90;99.90
18260;DHT22;9256;52.236;5.712;2023-07-16T07:37:25;20.10;99.90
18260;DHT22;9256;52.236;5.712;2023-07-16T07:39:52;20.10;99.90
18260;DHT22;9256;52.236;5.712;2023-07-16T07:42:19;20.30;99.90
18260;DHT22;9256;52.236;5.712;2023-07-16T07:44:46;20.30;99.90
18260;DHT22;9256;52.236;5.712;2023-07-16T07:47:14;20.20;99.90
18260;DHT22;9256;52.236;5.712;2023-07-16T07:49:41;20.20;99.90
18260;DHT22;9256;52.236;5.712;2023-07-16T07:52:08;20.10;99.90
18260;DHT22;9256;52.236;5.712;2023-07-16T07:54:35;20.10;99.90
18260;DHT22;9256;52.236;5.712;2023-07-16T07:57:03;20.20;99.90
18260;DHT22;9256;52.236;5.712;2023-07-16T07:59:30;20.30;99.90
18260;DHT22;9256;52.236;5.712;2023-07-16T08:01:57;20.30;99.90
18260;DHT22;9256;52.236;5.712;2023-07-16T08:04:26;20.10;99.90
18260;DHT22;9256;52.236;5.712;2023-07-16T08:06:54;20.20;99.90
18260;DHT22;9256;52.236;5.712;2023-07-16T08:09:21;20.20;99.90
18260;DHT22;9256;52.236;5.712;2023-07-16T08:11:48;20.00;99.90
18260;DHT22;9256;52.236;5.712;2023-07-16T08:14:15;19.80;99.90
18260;DHT22;9256;52.236;5.712;2023-07-16T08:16:42;19.70;99.90
18260;DHT22;9256;52.236;5.712;2023-07-16T08:19:09;19.60;99.90
18260;DHT22;9256;52.236;5.712;2023-07-16T08:21:37;19.50;99.90
18260;DHT22;9256;52.236;5.712;2023-07-16T08:24:05;19.40;99.90
18260;DHT22;9256;52.236;5.712;2023-07-16T08:26:32;19.40;99.90
18260;DHT22;9256;52.236;5.712;2023-07-16T08:28:59;19.50;99.90
18260;DHT22;9256;52.236;5.712;2023-07-16T08:31:26;19.60;99.90
18260;DHT22;9256;52.236;5.712;2023-07-16T08:33:53;19.90;99.90
18260;DHT22;9256;52.236;5.712;2023-07-16T08:36:20;20.20;99.90
18260;DHT22;9256;52.236;5.712;2023-07-16T08:38:49;20.40;99.90
18260;DHT22;9256;52.236;5.712;2023-07-16T08:41:16;20.60;99.90
18260;DHT22;9256;52.236;5.712;2023-07-16T08:43:44;20.50;99.90
18260;DHT22;9256;52.236;5.712;2023-07-16T08:46:12;20.60;99.90
18260;DHT22;9256;52.236;5.712;2023-07-16T08:48:39;20.60;99.90
18260;DHT22;9256;52.236;5.712;2023-07-16T08:51:07;20.60;99.90
18260;DHT22;9256;52.236;5.712;2023-07-16T08:53:36;20.60;99.90
18260;DHT22;9256;52.236;5.712;2023-07-16T08:56:05;20.60;99.90
18260;DHT22;9256;52.236;5.712;2023-07-16T08:58:32;20.50;99.90
18260;DHT22;9256;52.236;5.712;2023-07-16T09:00:59;20.40;99.90
18260;DHT22;9256;52.236;5.712;2023-07-16T09:03:27;20.30;99.90
18260;DHT22;9256;52.236;5.712;2023-07-16T09:05:54;20.20;99.90
18260;DHT22;9256;52.236;5.712;2023-07-16T09:08:21;20.10;99.90
18260;DHT22;9256;52.236;5.712;2023-07-16T09:10:54;20.00;99.90
18260;DHT22;9256;52.236;5.712;2023-07-16T09:13:23;19.90;99.90
18260;DHT22;9256;52.236;5.712;2023-07-16T09:15:52;19.90;99.90
18260;DHT22;9256;52.236;5.712;2023-07-16T09:18:20;20.00;99.90
18260;DHT22;9256;52.236;5.712;2023-07-16T09:20:48;20.10;99.90
18260;DHT22;9256;52.236;5.712;2023-07-16T09:23:17;20.20;99.90
18260;DHT22;9256;52.236;5.712;2023-07-16T09:25:44;20.60;99.90
18260;DHT22;9256;52.236;5.712;2023-07-16T09:28:12;21.00;99.90
18260;DHT22;9256;52.236;5.712;2023-07-16T09:30:40;21.30;99.90
18260;DHT22;9256;52.236;5.712;2023-07-16T09:33:13;21.70;99.90
18260;DHT22;9256;52.236;5.712;2023-07-16T09:35:40;21.60;99.90
18260;DHT22;9256;52.236;5.712;2023-07-16T09:38:07;21.30;99.90
18260;DHT22;9256;52.236;5.712;2023-07-16T09:40:35;21.10;99.90
18260;DHT22;9256;52.236;5.712;2023-07-16T09:43:03;21.00;99.90
18260;DHT22;9256;52.236;5.712;2023-07-16T09:45:30;20.90;99.90
18260;DHT22;9256;52.236;5.712;2023-07-16T09:47:58;20.80;99.90
18260;DHT22;9256;52.236;5.712;2023-07-16T09:50:27;20.70;99.90
18260;DHT22;9256;52.236;5.712;2023-07-16T09:52:55;20.50;99.90
18260;DHT22;9256;52.236;5.712;2023-07-16T09:55:23;20.50;99.90
18260;DHT22;9256;52.236;5.712;2023-07-16T09:57:53;20.50;99.90
18260;DHT22;9256;52.236;5.712;2023-07-16T10:00:21;20.70;99.90
18260;DHT22;9256;52.236;5.712;2023-07-16T10:02:49;21.10;99.90
18260;DHT22;9256;52.236;5.712;2023-07-16T10:05:23;21.60;99.90
18260;DHT22;9256;52.236;5.712;2023-07-16T10:07:51;21.80;99.90
18260;DHT22;9256;52.236;5.712;2023-07-16T10:10:19;21.50;99.90
18260;DHT22;9256;52.236;5.712;2023-07-16T10:12:55;21.40;99.90
18260;DHT22;9256;52.236;5.712;2023-07-16T10:15:25;21.10;99.90
18260;DHT22;9256;52.236;5.712;2023-07-16T10:17:54;21.20;99.90
18260;DHT22;9256;52.236;5.712;2023-07-16T10:20:30;21.40;99.90
18260;DHT22;9256;52.236;5.712;2023-07-16T10:22:57;21.80;99.90
18260;DHT22;9256;52.236;5.712;2023-07-16T10:25:26;21.70;99.90
18260;DHT22;9256;52.236;5.712;2023-07-16T10:27:55;21.60;99.90
18260;DHT22;9256;52.236;5.712;2023-07-16T10:30:22;21.40;99.90
18260;DHT22;9256;52.236;5.712;2023-07-16T10:32:51;21.20;99.90
18260;DHT22;9256;52.236;5.712;2023-07-16T10:35:19;21.20;99.90
18260;DHT22;9256;52.236;5.712;2023-07-16T10:37:47;21.30;99.90
18260;DHT22;9256;52.236;5.712;2023-07-16T10:40:15;21.80;99.90
18260;DHT22;9256;52.236;5.712;2023-07-16T10:42:43;22.40;99.90
18260;DHT22;9256;52.236;5.712;2023-07-16T10:45:12;22.30;99.90
18260;DHT22;9256;52.236;5.712;2023-07-16T10:47:50;22.00;99.90
18260;DHT22;9256;52.236;5.712;2023-07-16T10:50:19;21.60;99.90
18260;DHT22;9256;52.236;5.712;2023-07-16T10:52:50;21.00;99.90
18260;DHT22;9256;52.236;5.712;2023-07-16T10:55:18;20.70;99.90
18260;DHT22;9256;52.236;5.712;2023-07-16T10:57:47;20.50;99.90
18260;DHT22;9256;52.236;5.712;2023-07-16T11:00:15;20.30;99.90
18260;DHT22;9256;52.236;5.712;2023-07-16T11:02:42;20.20;99.90
18260;DHT22;9256;52.236;5.712;2023-07-16T11:05:10;20.30;99.90
18260;DHT22;9256;52.236;5.712;2023-07-16T11:07:37;20.50;99.90
18260;DHT22;9256;52.236;5.712;2023-07-16T11:10:07;21.00;99.90
18260;DHT22;9256;52.236;5.712;2023-07-16T11:12:34;21.10;99.90
18260;DHT22;9256;52.236;5.712;2023-07-16T11:15:02;21.10;99.90
18260;DHT22;9256;52.236;5.712;2023-07-16T11:17:29;21.30;99.90
18260;DHT22;9256;52.236;5.712;2023-07-16T11:19:56;21.70;99.90
18260;DHT22;9256;52.236;5.712;2023-07-16T11:22:25;21.90;99.90
18260;DHT22;9256;52.236;5.712;2023-07-16T11:24:53;21.80;99.90
18260;DHT22;9256;52.236;5.712;2023-07-16T11:27:23;22.00;99.90
18260;DHT22;9256;52.236;5.712;2023-07-16T11:29:51;22.10;99.90
18260;DHT22;9256;52.236;5.712;2023-07-16T11:32:30;22.00;99.90
18260;DHT22;9256;52.236;5.712;2023-07-16T11:34:57;22.70;99.90
18260;DHT22;9256;52.236;5.712;2023-07-16T11:37:25;23.20;99.90
18260;DHT22;9256;52.236;5.712;2023-07-16T11:39:55;23.00;99.90
18260;DHT22;9256;52.236;5.712;2023-07-16T11:42:30;22.70;99.90
18260;DHT22;9256;52.236;5.712;2023-07-16T11:44:58;22.20;99.90
18260;DHT22;9256;52.236;5.712;2023-07-16T11:47:25;21.60;99.90
18260;DHT22;9256;52.236;5.712;2023-07-16T11:49:53;21.40;99.90
18260;DHT22;9256;52.236;5.712;2023-07-16T11:52:20;21.10;99.90
18260;DHT22;9256;52.236;5.712;2023-07-16T11:54:48;20.80;99.90
18260;DHT22;9256;52.236;5.712;2023-07-16T11:57:15;20.80;99.90
18260;DHT22;9256;52.236;5.712;2023-07-16T11:59:43;20.70;99.90
18260;DHT22;9256;52.236;5.712;2023-07-16T12:02:10;20.70;99.90
18260;DHT22;9256;52.236;5.712;2023-07-16T12:04:37;21.10;99.90
18260;DHT22;9256;52.236;5.712;2023-07-16T12:07:04;21.60;99.90
18260;DHT22;9256;52.236;5.712;2023-07-16T12:09:31;21.90;99.90
18260;DHT22;9256;52.236;5.712;2023-07-16T12:11:59;22.20;99.90
18260;DHT22;9256;52.236;5.712;2023-07-16T12:14:26;22.30;99.90
18260;DHT22;9256;52.236;5.712;2023-07-16T12:16:55;22.70;99.90
18260;DHT22;9256;52.236;5.712;2023-07-16T12:19:22;22.60;99.90
18260;DHT22;9256;52.236;5.712;2023-07-16T12:21:49;22.40;99.90
18260;DHT22;9256;52.236;5.712;2023-07-16T12:24:16;22.30;99.90
18260;DHT22;9256;52.236;5.712;2023-07-16T12:26:43;22.50;99.90
18260;DHT22;9256;52.236;5.712;2023-07-16T12:29:10;22.60;99.90
18260;DHT22;9256;52.236;5.712;2023-07-16T12:31:37;22.60;99.90
18260;DHT22;9256;52.236;5.712;2023-07-16T12:34:05;22.40;99.90
18260;DHT22;9256;52.236;5.712;2023-07-16T12:36:32;22.70;99.90
18260;DHT22;9256;52.236;5.712;2023-07-16T12:38:59;23.40;99.90
18260;DHT22;9256;52.236;5.712;2023-07-16T12:41:26;24.50;99.90
18260;DHT22;9256;52.236;5.712;2023-07-16T12:43:53;24.60;99.90
18260;DHT22;9256;52.236;5.712;2023-07-16T12:46:20;25.00;99.90
18260;DHT22;9256;52.236;5.712;2023-07-16T12:48:47;24.50;99.90
18260;DHT22;9256;52.236;5.712;2023-07-16T12:51:15;24.30;99.90
18260;DHT22;9256;52.236;5.712;2023-07-16T12:53:42;23.50;99.90
18260;DHT22;9256;52.236;5.712;2023-07-16T12:56:10;22.90;99.90
18260;DHT22;9256;52.236;5.712;2023-07-16T12:58:37;22.70;99.90
18260;DHT22;9256;52.236;5.712;2023-07-16T13:01:04;23.60;99.90
18260;DHT22;9256;52.236;5.712;2023-07-16T13:03:30;23.60;99.90
18260;DHT22;9256;52.236;5.712;2023-07-16T13:05:57;24.10;99.90
18260;DHT22;9256;52.236;5.712;2023-07-16T13:08:26;24.80;99.90
18260;DHT22;9256;52.236;5.712;2023-07-16T13:10:53;24.90;99.90
18260;DHT22;9256;52.236;5.712;2023-07-16T13:13:20;25.30;99.90
18260;DHT22;9256;52.236;5.712;2023-07-16T13:15:48;25.10;99.90
18260;DHT22;9256;52.236;5.712;2023-07-16T13:18:15;25.60;99.90
18260;DHT22;9256;52.236;5.712;2023-07-16T13:20:42;25.80;99.90
18260;DHT22;9256;52.236;5.712;2023-07-16T13:23:09;25.00;99.90
18260;DHT22;9256;52.236;5.712;2023-07-16T13:25:37;24.20;99.90
18260;DHT22;9256;52.236;5.712;2023-07-16T13:28:05;23.80;99.90
18260;DHT22;9256;52.236;5.712;2023-07-16T13:30:32;23.70;99.90
18260;DHT22;9256;52.236;5.712;2023-07-16T13:32:59;24.00;99.90
18260;DHT22;9256;52.236;5.712;2023-07-16T13:35:27;24.30;99.90
18260;DHT22;9256;52.236;5.712;2023-07-16T13:37:54;24.40;99.90
18260;DHT22;9256;52.236;5.712;2023-07-16T13:40:21;23.90;99.90
18260;DHT22;9256;52.236;5.712;2023-07-16T13:42:49;23.40;99.90
18260;DHT22;9256;52.236;5.712;2023-07-16T13:45:16;23.60;99.90
18260;DHT22;9256;52.236;5.712;2023-07-16T13:47:43;24.90;99.90
18260;DHT22;9256;52.236;5.712;2023-07-16T13:50:10;26.10;99.90
18260;DHT22;9256;52.236;5.712;2023-07-16T13:52:37;26.30;99.90
18260;DHT22;9256;52.236;5.712;2023-07-16T13:55:04;25.30;99.90
18260;DHT22;9256;52.236;5.712;2023-07-16T13:57:31;24.60;99.90
18260;DHT22;9256;52.236;5.712;2023-07-16T14:00:00;23.90;99.90
18260;DHT22;9256;52.236;5.712;2023-07-16T14:02:27;23.50;99.90
18260;DHT22;9256;52.236;5.712;2023-07-16T14:04:54;23.30;99.90
18260;DHT22;9256;52.236;5.712;2023-07-16T14:07:22;23.20;99.90
18260;DHT22;9256;52.236;5.712;2023-07-16T14:09:49;23.10;99.90
18260;DHT22;9256;52.236;5.712;2023-07-16T14:12:16;23.10;99.90
18260;DHT22;9256;52.236;5.712;2023-07-16T14:14:43;23.30;99.90
18260;DHT22;9256;52.236;5.712;2023-07-16T14:17:11;23.70;99.90
18260;DHT22;9256;52.236;5.712;2023-07-16T14:19:38;25.10;99.90
18260;DHT22;9256;52.236;5.712;2023-07-16T14:22:05;25.40;99.90
18260;DHT22;9256;52.236;5.712;2023-07-16T14:24:32;25.90;99.90
18260;DHT22;9256;52.236;5.712;2023-07-16T14:26:59;25.60;99.90
18260;DHT22;9256;52.236;5.712;2023-07-16T14:29:27;25.00;99.90
18260;DHT22;9256;52.236;5.712;2023-07-16T14:31:55;24.60;99.90
18260;DHT22;9256;52.236;5.712;2023-07-16T14:34:24;24.70;99.90
18260;DHT22;9256;52.236;5.712;2023-07-16T14:36:52;25.20;99.90
18260;DHT22;9256;52.236;5.712;2023-07-16T14:39:18;24.80;99.90
18260;DHT22;9256;52.236;5.712;2023-07-16T14:41:46;25.00;99.90
18260;DHT22;9256;52.236;5.712;2023-07-16T14:44:13;24.90;99.90
18260;DHT22;9256;52.236;5.712;2023-07-16T14:46:40;24.80;99.90
18260;DHT22;9256;52.236;5.712;2023-07-16T14:49:07;24.60;99.90
18260;DHT22;9256;52.236;5.712;2023-07-16T14:51:35;24.40;99.90
18260;DHT22;9256;52.236;5.712;2023-07-16T14:54:05;24.40;99.90
18260;DHT22;9256;52.236;5.712;2023-07-16T14:56:32;24.40;99.90
18260;DHT22;9256;52.236;5.712;2023-07-16T14:58:59;24.10;99.90
18260;DHT22;9256;52.236;5.712;2023-07-16T15:01:26;24.10;99.90
18260;DHT22;9256;52.236;5.712;2023-07-16T15:03:53;24.20;99.90
18260;DHT22;9256;52.236;5.712;2023-07-16T15:06:20;24.20;99.90
18260;DHT22;9256;52.236;5.712;2023-07-16T15:08:48;24.20;99.90
18260;DHT22;9256;52.236;5.712;2023-07-16T15:11:16;24.30;99.90
18260;DHT22;9256;52.236;5.712;2023-07-16T15:13:43;24.20;99.90
18260;DHT22;9256;52.236;5.712;2023-07-16T15:16:10;24.10;99.90
18260;DHT22;9256;52.236;5.712;2023-07-16T15:18:38;24.10;99.90
18260;DHT22;9256;52.236;5.712;2023-07-16T15:21:05;24.40;99.90
18260;DHT22;9256;52.236;5.712;2023-07-16T15:23:32;24.60;99.90
18260;DHT22;9256;52.236;5.712;2023-07-16T15:26:02;24.90;99.90
18260;DHT22;9256;52.236;5.712;2023-07-16T15:28:30;24.90;99.90
18260;DHT22;9256;52.236;5.712;2023-07-16T15:30:59;24.40;99.90
18260;DHT22;9256;52.236;5.712;2023-07-16T15:33:26;24.20;99.90
18260;DHT22;9256;52.236;5.712;2023-07-16T15:35:55;23.90;99.90
18260;DHT22;9256;52.236;5.712;2023-07-16T15:38:22;23.90;99.90
18260;DHT22;9256;52.236;5.712;2023-07-16T15:40:49;23.70;99.90
18260;DHT22;9256;52.236;5.712;2023-07-16T15:43:17;23.70;99.90
18260;DHT22;9256;52.236;5.712;2023-07-16T15:45:44;23.60;99.90
18260;DHT22;9256;52.236;5.712;2023-07-16T15:48:11;23.60;99.90
18260;DHT22;9256;52.236;5.712;2023-07-16T15:50:38;23.60;99.90